Time;durP1;ratioP1;P1;durP2;ratioP2;P2;SDS_P1;SDS_P2;PMS_P1;PMS_P2;Temp;Humidity;BMP_temperature;BMP_pressure;BME280_temperature;BME280_humidity;BME280_pressure;Samples;Min_cycle;Max_cycle;Signal;HPM_P1;HPM_P2
2021/05/20 00:01:05;;;;;;;1.13;1.01;;;;;;;19.75;51.65;100767.66;;;;-51
2021/05/20 00:04:05;;;;;;;1.01;1.00;;;;;;;19.74;51.59;100764.50;;;;-51
2021/05/20 00:07:05;;;;;;;1.20;1.11;;;;;;;19.74;51.66;100767.59;;;;-51
2021/05/20 00:10:05;;;;;;;1.10;1.01;;;;;;;19.73;51.67;100765.37;;;;-45
2021/05/20 00:13:05;;;;;;;0.95;0.95;;;;;;;19.72;51.65;100764.80;;;;-45
2021/05/20 00:16:05;;;;;;;1.07;1.00;;;;;;;19.71;51.66;100767.46;;;;-45
2021/05/20 00:19:06;;;;;;;0.99;0.99;;;;;;;19.69;51.67;100767.25;;;;-45
2021/05/20 00:22:05;;;;;;;1.47;1.09;;;;;;;19.69;51.73;100769.52;;;;-51
2021/05/20 00:25:05;;;;;;;1.04;1.00;;;;;;;19.68;51.70;100766.27;;;;-51
2021/05/20 00:28:05;;;;;;;1.10;1.01;;;;;;;19.67;51.71;100769.28;;;;-51
2021/05/20 00:31:05;;;;;;;1.00;1.00;;;;;;;19.66;51.64;100772.51;;;;-48
2021/05/20 00:34:05;;;;;;;1.19;1.01;;;;;;;19.66;51.73;100771.38;;;;-48
2021/05/20 00:37:05;;;;;;;1.05;1.02;;;;;;;19.65;51.70;100772.16;;;;-48
2021/05/20 00:40:05;;;;;;;0.95;0.95;;;;;;;19.64;51.67;100772.66;;;;-48
2021/05/20 00:43:05;;;;;;;0.99;0.99;;;;;;;19.64;51.70;100776.31;;;;-47
2021/05/20 00:46:05;;;;;;;1.00;1.00;;;;;;;19.63;51.70;100779.37;;;;-45
2021/05/20 00:49:10;;;;;;;1.20;1.12;;;;;;;19.62;51.68;100774.66;;;;-45
2021/05/20 00:52:05;;;;;;;0.96;0.96;;;;;;;19.61;51.69;100769.87;;;;-48
2021/05/20 00:55:05;;;;;;;1.10;1.07;;;;;;;19.60;51.73;100771.31;;;;-48
2021/05/20 00:58:05;;;;;;;1.03;0.96;;;;;;;19.60;51.75;100775.86;;;;-45
2021/05/20 01:01:05;;;;;;;1.00;1.00;;;;;;;19.59;51.70;100779.28;;;;-48
2021/05/20 01:04:05;;;;;;;1.31;1.06;;;;;;;19.59;51.74;100776.92;;;;-48
2021/05/20 01:07:05;;;;;;;1.20;1.10;;;;;;;19.57;51.76;100772.67;;;;-51
2021/05/20 01:10:05;;;;;;;1.20;1.10;;;;;;;19.57;51.72;100775.65;;;;-48
2021/05/20 01:13:05;;;;;;;0.94;0.94;;;;;;;19.56;51.77;100775.24;;;;-48
2021/05/20 01:16:05;;;;;;;0.99;0.99;;;;;;;19.56;51.72;100776.63;;;;-47
2021/05/20 01:19:05;;;;;;;0.97;0.97;;;;;;;19.54;51.84;100776.84;;;;-47
2021/05/20 01:22:05;;;;;;;1.05;1.05;;;;;;;19.55;51.69;100780.50;;;;-52
2021/05/20 01:25:05;;;;;;;1.01;1.01;;;;;;;19.54;51.74;100779.70;;;;-51
2021/05/20 01:28:05;;;;;;;1.03;0.97;;;;;;;19.54;51.80;100785.06;;;;-48
2021/05/20 01:31:07;;;;;;;1.17;1.07;;;;;;;19.53;51.79;100787.50;;;;-52
2021/05/20 01:34:06;;;;;;;1.14;1.10;;;;;;;19.53;51.73;100790.83;;;;-51
2021/05/20 01:37:05;;;;;;;1.04;1.00;;;;;;;19.52;51.74;100791.45;;;;-51
2021/05/20 01:40:05;;;;;;;0.91;0.91;;;;;;;19.51;51.79;100791.78;;;;-51
2021/05/20 01:43:05;;;;;;;1.29;0.97;;;;;;;19.51;51.81;100788.05;;;;-48
2021/05/20 01:46:06;;;;;;;1.08;1.00;;;;;;;19.49;51.84;100791.76;;;;-48
2021/05/20 01:49:09;;;;;;;1.19;1.11;;;;;;;19.49;51.83;100794.28;;;;-45
2021/05/20 01:52:05;;;;;;;0.90;0.90;;;;;;;19.48;51.89;100793.60;;;;-48
2021/05/20 01:55:05;;;;;;;1.00;1.00;;;;;;;19.48;51.79;100797.02;;;;-48
2021/05/20 01:58:05;;;;;;;0.93;0.91;;;;;;;19.48;51.71;100802.22;;;;-51
2021/05/20 02:01:05;;;;;;;1.05;1.04;;;;;;;19.47;51.83;100802.14;;;;-51
2021/05/20 02:04:05;;;;;;;1.07;1.03;;;;;;;19.46;51.76;100805.20;;;;-47
2021/05/20 02:07:05;;;;;;;0.95;0.95;;;;;;;19.46;51.76;100807.80;;;;-48
2021/05/20 02:10:05;;;;;;;0.85;0.85;;;;;;;19.46;51.87;100809.52;;;;-48
2021/05/20 02:13:05;;;;;;;0.97;0.97;;;;;;;19.44;51.86;100808.05;;;;-48
2021/05/20 02:16:05;;;;;;;0.93;0.93;;;;;;;19.44;51.79;100811.80;;;;-48
2021/05/20 02:19:05;;;;;;;1.00;1.00;;;;;;;19.43;51.82;100809.00;;;;-51
2021/05/20 02:22:05;;;;;;;1.00;1.00;;;;;;;19.44;51.75;100815.50;;;;-48
2021/05/20 02:25:05;;;;;;;1.09;1.04;;;;;;;19.43;51.86;100810.06;;;;-51
2021/05/20 02:28:05;;;;;;;0.95;0.95;;;;;;;19.42;51.88;100813.23;;;;-51
2021/05/20 02:31:05;;;;;;;0.95;0.95;;;;;;;19.42;51.79;100814.98;;;;-51
2021/05/20 02:34:05;;;;;;;1.00;1.00;;;;;;;19.41;51.91;100822.14;;;;-45
2021/05/20 02:37:05;;;;;;;0.82;0.82;;;;;;;19.40;51.85;100817.91;;;;-48
2021/05/20 02:40:05;;;;;;;0.90;0.90;;;;;;;19.40;51.83;100816.75;;;;-51
2021/05/20 02:43:05;;;;;;;0.90;0.90;;;;;;;19.40;51.78;100818.22;;;;-51
2021/05/20 02:46:05;;;;;;;1.02;1.00;;;;;;;19.39;51.84;100817.16;;;;-51
2021/05/20 02:49:05;;;;;;;1.04;1.04;;;;;;;19.39;51.90;100818.05;;;;-51
2021/05/20 02:52:05;;;;;;;1.03;1.03;;;;;;;19.38;51.83;100825.05;;;;-45
2021/05/20 02:55:07;;;;;;;1.01;1.01;;;;;;;19.38;51.83;100828.83;;;;-51
2021/05/20 02:58:05;;;;;;;1.03;0.92;;;;;;;19.37;51.83;100825.50;;;;-52
2021/05/20 03:01:05;;;;;;;1.01;1.01;;;;;;;19.36;51.79;100825.72;;;;-51
2021/05/20 03:04:05;;;;;;;0.99;0.98;;;;;;;19.36;51.88;100831.00;;;;-47
2021/05/20 03:07:05;;;;;;;1.00;1.00;;;;;;;19.36;51.87;100834.17;;;;-45
2021/05/20 03:10:05;;;;;;;0.90;0.90;;;;;;;19.35;51.86;100835.80;;;;-51
2021/05/20 03:13:05;;;;;;;0.99;0.99;;;;;;;19.34;51.89;100833.49;;;;-51
2021/05/20 03:16:05;;;;;;;1.12;1.07;;;;;;;19.34;51.92;100837.83;;;;-52
2021/05/20 03:19:05;;;;;;;1.05;1.00;;;;;;;19.34;51.81;100841.05;;;;-47
2021/05/20 03:22:05;;;;;;;1.00;1.00;;;;;;;19.33;51.90;100841.54;;;;-48
2021/05/20 03:25:05;;;;;;;0.95;0.95;;;;;;;19.32;51.90;100846.17;;;;-45
2021/05/20 03:28:05;;;;;;;1.10;1.10;;;;;;;19.32;51.82;100848.05;;;;-48
2021/05/20 03:31:05;;;;;;;1.02;0.99;;;;;;;19.31;51.84;100843.38;;;;-48
2021/05/20 03:34:05;;;;;;;1.02;1.02;;;;;;;19.31;51.86;100845.50;;;;-48
2021/05/20 03:37:05;;;;;;;1.20;1.10;;;;;;;19.30;51.85;100850.21;;;;-45
2021/05/20 03:40:05;;;;;;;0.98;0.97;;;;;;;19.29;51.91;100856.77;;;;-48
2021/05/20 03:43:05;;;;;;;0.90;0.90;;;;;;;19.29;51.88;100855.06;;;;-47
2021/05/20 03:46:06;;;;;;;0.91;0.91;;;;;;;19.28;51.93;100854.33;;;;-47
2021/05/20 03:49:05;;;;;;;0.91;0.91;;;;;;;19.28;51.92;100857.63;;;;-47
2021/05/20 03:52:06;;;;;;;0.93;0.90;;;;;;;19.27;51.92;100859.91;;;;-51
2021/05/20 03:55:05;;;;;;;1.00;1.00;;;;;;;19.27;51.96;100862.27;;;;-51
2021/05/20 03:58:05;;;;;;;1.02;1.02;;;;;;;19.26;51.90;100869.73;;;;-51
2021/05/20 04:01:05;;;;;;;1.01;1.00;;;;;;;19.27;51.91;100870.39;;;;-45
2021/05/20 04:04:05;;;;;;;0.97;0.97;;;;;;;19.26;51.87;100875.34;;;;-45
2021/05/20 04:07:05;;;;;;;1.00;1.00;;;;;;;19.25;51.92;100874.34;;;;-45
2021/05/20 04:10:05;;;;;;;1.01;1.00;;;;;;;19.25;51.89;100873.69;;;;-51
2021/05/20 04:13:06;;;;;;;1.19;1.08;;;;;;;19.25;52.00;100875.80;;;;-45
2021/05/20 04:16:05;;;;;;;1.17;1.09;;;;;;;19.24;51.93;100878.65;;;;-45
2021/05/20 04:19:05;;;;;;;1.00;1.00;;;;;;;19.24;51.98;100879.70;;;;-48
2021/05/20 04:22:05;;;;;;;0.99;0.99;;;;;;;19.24;51.96;100879.95;;;;-45
2021/05/20 04:25:05;;;;;;;1.13;1.03;;;;;;;19.23;51.93;100881.14;;;;-45
2021/05/20 04:28:05;;;;;;;1.13;1.01;;;;;;;19.23;51.97;100879.84;;;;-48
2021/05/20 04:31:05;;;;;;;1.72;1.08;;;;;;;19.23;51.92;100883.25;;;;-46
2021/05/20 04:34:05;;;;;;;0.99;0.99;;;;;;;19.22;51.90;100887.80;;;;-51
2021/05/20 04:37:08;;;;;;;1.11;1.11;;;;;;;19.22;51.95;100892.11;;;;-51
2021/05/20 04:40:05;;;;;;;1.20;1.10;;;;;;;19.21;51.96;100891.59;;;;-52
2021/05/20 04:43:05;;;;;;;1.19;1.09;;;;;;;19.21;51.96;100901.91;;;;-48
2021/05/20 04:46:05;;;;;;;0.99;0.99;;;;;;;19.21;51.96;100900.04;;;;-51
2021/05/20 04:49:11;;;;;;;1.03;1.00;;;;;;;19.20;51.95;100902.23;;;;-47
2021/05/20 04:52:05;;;;;;;1.00;1.00;;;;;;;19.19;51.93;100903.83;;;;-51
2021/05/20 04:55:05;;;;;;;1.01;1.01;;;;;;;19.20;51.98;100909.88;;;;-48
2021/05/20 04:58:05;;;;;;;0.93;0.91;;;;;;;19.19;51.94;100907.41;;;;-48
2021/05/20 05:01:05;;;;;;;1.07;1.02;;;;;;;19.18;51.94;100912.11;;;;-48
2021/05/20 05:04:05;;;;;;;0.93;0.93;;;;;;;19.18;51.91;100914.47;;;;-51
2021/05/20 05:07:05;;;;;;;0.99;0.99;;;;;;;19.18;51.98;100919.42;;;;-48
2021/05/20 05:10:05;;;;;;;1.01;1.00;;;;;;;19.17;51.98;100921.75;;;;-48
2021/05/20 05:13:05;;;;;;;0.93;0.93;;;;;;;19.17;51.96;100924.03;;;;-48
2021/05/20 05:16:05;;;;;;;1.13;1.07;;;;;;;19.16;51.99;100928.17;;;;-45
2021/05/20 05:19:05;;;;;;;1.00;1.00;;;;;;;19.16;51.91;100934.67;;;;-45
2021/05/20 05:22:05;;;;;;;2.24;1.90;;;;;;;19.14;52.55;100936.10;;;;-52
2021/05/20 05:25:05;;;;;;;2.54;2.15;;;;;;;19.08;53.12;100939.34;;;;-52
2021/05/20 05:28:05;;;;;;;2.65;2.41;;;;;;;19.00;53.43;100940.34;;;;-51
2021/05/20 05:31:05;;;;;;;2.87;2.30;;;;;;;18.90;53.69;100944.56;;;;-52
2021/05/20 05:34:05;;;;;;;2.77;2.38;;;;;;;18.85;54.02;100942.30;;;;-59
2021/05/20 05:37:05;;;;;;;2.77;2.46;;;;;;;18.76;54.18;100943.10;;;;-52
2021/05/20 05:40:05;;;;;;;2.59;2.20;;;;;;;18.68;54.65;100948.08;;;;-55
2021/05/20 05:43:05;;;;;;;2.63;2.16;;;;;;;18.74;54.21;100951.11;;;;-57
2021/05/20 05:46:05;;;;;;;2.12;1.91;;;;;;;18.81;53.99;100955.22;;;;-55
2021/05/20 05:49:13;;;;;;;3.10;1.97;;;;;;;18.87;53.82;100958.01;;;;-57
2021/05/20 05:52:07;;;;;;;2.92;1.90;;;;;;;18.92;53.61;100965.14;;;;-57
2021/05/20 05:55:05;;;;;;;1.87;1.70;;;;;;;18.98;53.48;100964.44;;;;-57
2021/05/20 05:58:05;;;;;;;2.03;1.62;;;;;;;19.03;53.34;100971.11;;;;-58
2021/05/20 06:01:05;;;;;;;1.85;1.50;;;;;;;19.07;53.30;100968.58;;;;-56
2021/05/20 06:04:05;;;;;;;2.00;1.51;;;;;;;19.11;53.23;100977.02;;;;-57
2021/05/20 06:07:05;;;;;;;1.79;1.60;;;;;;;19.16;53.19;100975.22;;;;-57
2021/05/20 06:10:05;;;;;;;1.98;1.50;;;;;;;19.18;53.21;100972.89;;;;-56
2021/05/20 06:13:05;;;;;;;1.84;1.50;;;;;;;19.22;53.27;100974.41;;;;-57
2021/05/20 06:16:05;;;;;;;1.76;1.60;;;;;;;19.23;53.05;100974.17;;;;-57
2021/05/20 06:19:05;;;;;;;1.51;1.40;;;;;;;19.26;53.03;100975.22;;;;-57
2021/05/20 06:22:05;;;;;;;2.77;1.54;;;;;;;19.28;53.07;100975.81;;;;-57
2021/05/20 06:25:05;;;;;;;1.75;1.49;;;;;;;19.30;52.95;100974.02;;;;-57
2021/05/20 06:28:05;;;;;;;1.49;1.39;;;;;;;19.31;52.96;100971.53;;;;-57
2021/05/20 06:31:05;;;;;;;1.69;1.40;;;;;;;19.33;52.87;100973.77;;;;-58
2021/05/20 06:34:05;;;;;;;2.35;1.36;;;;;;;19.34;52.96;100977.38;;;;-57
2021/05/20 06:37:05;;;;;;;1.99;1.42;;;;;;;19.35;52.83;100980.13;;;;-57
2021/05/20 06:40:05;;;;;;;1.33;1.23;;;;;;;19.36;52.76;100983.58;;;;-56
2021/05/20 06:43:05;;;;;;;2.04;1.39;;;;;;;19.37;52.71;100983.42;;;;-57
2021/05/20 06:46:05;;;;;;;1.50;1.40;;;;;;;19.38;52.63;100984.83;;;;-56
2021/05/20 06:49:07;;;;;;;1.59;1.40;;;;;;;19.38;52.70;100983.53;;;;-56
2021/05/20 06:52:05;;;;;;;1.40;1.30;;;;;;;19.39;52.60;100987.51;;;;-57
2021/05/20 06:55:05;;;;;;;1.47;1.37;;;;;;;19.40;52.59;100990.52;;;;-57
2021/05/20 07:01:05;;;;;;;1.41;1.31;;;;;;;19.39;52.46;100990.11;;;;-57
2021/05/20 07:04:05;;;;;;;1.59;1.40;;;;;;;19.41;52.52;100996.81;;;;-57
2021/05/20 07:07:05;;;;;;;1.48;1.38;;;;;;;19.40;52.42;100993.20;;;;-57
2021/05/20 07:10:05;;;;;;;1.64;1.37;;;;;;;19.41;52.37;100997.54;;;;-57
2021/05/20 07:13:05;;;;;;;1.43;1.33;;;;;;;19.41;52.34;100999.73;;;;-57
2021/05/20 07:16:05;;;;;;;1.31;1.21;;;;;;;19.41;52.33;100999.08;;;;-57
2021/05/20 07:19:05;;;;;;;1.57;1.41;;;;;;;19.40;52.34;100996.13;;;;-57
2021/05/20 07:22:05;;;;;;;1.47;1.35;;;;;;;19.39;52.34;100985.23;;;;-57
2021/05/20 07:25:05;;;;;;;1.40;1.30;;;;;;;19.41;52.31;100987.87;;;;-57
2021/05/20 07:28:05;;;;;;;1.89;1.40;;;;;;;19.41;52.37;100992.26;;;;-57
2021/05/20 07:31:05;;;;;;;1.46;1.35;;;;;;;19.40;52.25;100990.22;;;;-57
2021/05/20 07:34:05;;;;;;;1.42;1.32;;;;;;;19.40;52.29;100993.15;;;;-57
2021/05/20 07:37:06;;;;;;;1.71;1.35;;;;;;;19.40;52.23;100998.52;;;;-56
2021/05/20 07:40:05;;;;;;;1.53;1.32;;;;;;;19.40;52.23;100998.97;;;;-58
2021/05/20 07:43:05;;;;;;;1.42;1.32;;;;;;;19.40;52.19;101004.25;;;;-56
2021/05/20 07:46:05;;;;;;;1.44;1.34;;;;;;;19.40;52.15;101007.42;;;;-57
2021/05/20 07:49:05;;;;;;;1.43;1.19;;;;;;;19.39;52.21;101004.34;;;;-56
2021/05/20 07:52:05;;;;;;;1.73;1.35;;;;;;;19.39;52.30;101006.69;;;;-48
2021/05/20 07:55:05;;;;;;;1.59;1.34;;;;;;;19.41;52.64;101011.03;;;;-50
2021/05/20 07:58:05;;;;;;;1.55;1.21;;;;;;;19.42;52.87;101004.94;;;;-52
2021/05/20 08:01:05;;;;;;;1.69;1.35;;;;;;;19.43;53.00;101004.23;;;;-50
2021/05/20 08:04:08;;;;;;;1.41;1.31;;;;;;;19.46;53.09;101004.30;;;;-58
2021/05/20 08:07:11;;;;;;;1.88;1.29;;;;;;;19.50;53.30;101007.50;;;;-53
2021/05/20 08:10:38;;;;;;;1.27;1.18;;;;;;;19.53;53.34;101006.26;;;;-51
2021/05/20 08:13:05;;;;;;;1.96;1.30;;;;;;;19.56;53.40;101004.09;;;;-52
2021/05/20 08:16:05;;;;;;;1.47;1.24;;;;;;;19.60;53.32;101004.73;;;;-57
2021/05/20 08:19:05;;;;;;;1.40;1.30;;;;;;;19.65;53.18;101001.70;;;;-57
2021/05/20 08:22:05;;;;;;;1.43;1.33;;;;;;;19.68;53.41;101002.16;;;;-51
2021/05/20 08:25:05;;;;;;;1.43;1.33;;;;;;;19.72;53.32;100998.59;;;;-53
2021/05/20 08:28:05;;;;;;;2.02;1.31;;;;;;;19.77;53.32;101000.19;;;;-51
2021/05/20 08:31:05;;;;;;;3.51;1.33;;;;;;;19.81;53.47;101001.06;;;;-45
2021/05/20 08:34:05;;;;;;;1.59;1.35;;;;;;;19.85;53.07;100999.41;;;;-50
2021/05/20 08:37:05;;;;;;;1.61;1.33;;;;;;;19.86;52.68;100996.52;;;;-51
2021/05/20 08:40:05;;;;;;;3.06;1.27;;;;;;;19.88;52.96;100993.28;;;;-52
2021/05/20 08:43:05;;;;;;;3.12;1.35;;;;;;;19.90;52.96;100992.98;;;;-51
2021/05/20 08:46:05;;;;;;;1.36;1.26;;;;;;;19.92;52.70;100991.11;;;;-51
2021/05/20 08:49:05;;;;;;;1.91;1.20;;;;;;;19.92;52.57;100986.34;;;;-51
2021/05/20 08:52:05;;;;;;;1.30;1.17;;;;;;;19.94;52.49;100993.83;;;;-53
2021/05/20 08:55:05;;;;;;;2.77;1.33;;;;;;;19.94;52.33;100993.37;;;;-53
2021/05/20 08:58:05;;;;;;;1.13;1.05;;;;;;;19.95;52.24;100991.09;;;;-51
2021/05/20 09:01:05;;;;;;;1.30;1.20;;;;;;;19.97;52.17;100987.38;;;;-51
2021/05/20 09:04:05;;;;;;;2.03;1.20;;;;;;;19.98;52.05;100987.40;;;;-51
2021/05/20 09:07:09;;;;;;;1.72;1.29;;;;;;;20.00;52.07;100989.10;;;;-51
2021/05/20 09:10:05;;;;;;;1.38;1.28;;;;;;;20.02;52.00;100990.02;;;;-51
2021/05/20 09:13:05;;;;;;;3.50;1.30;;;;;;;20.03;51.95;100992.73;;;;-51
2021/05/20 09:16:05;;;;;;;1.34;1.17;;;;;;;20.05;51.85;100996.27;;;;-54
2021/05/20 09:19:05;;;;;;;1.08;1.05;;;;;;;20.06;51.97;100989.91;;;;-53
2021/05/20 09:22:05;;;;;;;1.47;1.30;;;;;;;20.08;51.77;100994.82;;;;-53
2021/05/20 09:25:05;;;;;;;1.21;1.11;;;;;;;20.09;51.73;100995.25;;;;-53
2021/05/20 09:28:05;;;;;;;1.47;1.29;;;;;;;20.11;51.68;100994.72;;;;-54
2021/05/20 09:31:05;;;;;;;2.73;1.14;;;;;;;20.13;51.66;100989.61;;;;-52
2021/05/20 09:34:05;;;;;;;1.23;1.13;;;;;;;20.15;51.61;100992.00;;;;-52
2021/05/20 09:37:05;;;;;;;1.14;1.10;;;;;;;20.16;51.72;100990.77;;;;-52
2021/05/20 09:40:05;;;;;;;1.17;1.13;;;;;;;20.18;51.66;100995.36;;;;-52
2021/05/20 09:43:05;;;;;;;1.08;1.04;;;;;;;20.18;51.62;100997.88;;;;-53
2021/05/20 09:46:05;;;;;;;1.20;1.11;;;;;;;20.20;51.58;100992.28;;;;-53
2021/05/20 09:49:05;;;;;;;1.17;1.10;;;;;;;20.21;51.56;100986.34;;;;-52
2021/05/20 09:52:05;;;;;;;1.22;1.12;;;;;;;20.23;51.48;100983.36;;;;-51
2021/05/20 09:55:05;;;;;;;1.13;1.07;;;;;;;20.24;51.51;100980.53;;;;-51
2021/05/20 09:58:05;;;;;;;1.75;1.24;;;;;;;20.25;51.43;100975.33;;;;-51
2021/05/20 10:01:05;;;;;;;1.47;1.16;;;;;;;20.25;51.42;100975.44;;;;-51
2021/05/20 10:04:07;;;;;;;1.30;1.20;;;;;;;20.26;51.45;100966.97;;;;-51
2021/05/20 10:07:05;;;;;;;1.13;1.11;;;;;;;20.28;51.37;100968.62;;;;-51
2021/05/20 10:10:05;;;;;;;1.19;1.12;;;;;;;20.29;51.36;100963.66;;;;-53
2021/05/20 10:13:05;;;;;;;2.46;1.27;;;;;;;20.31;51.83;100962.86;;;;-58
2021/05/20 10:16:05;;;;;;;4.05;1.85;;;;;;;20.31;52.15;100961.39;;;;-63
2021/05/20 10:19:05;;;;;;;5.63;2.63;;;;;;;20.32;52.37;100962.89;;;;-53
2021/05/20 10:22:05;;;;;;;3.45;2.43;;;;;;;20.33;51.99;100963.69;;;;-57
2021/05/20 10:25:05;;;;;;;3.83;2.29;;;;;;;20.34;52.41;100953.14;;;;-57
2021/05/20 10:28:05;;;;;;;3.71;2.21;;;;;;;20.35;52.52;100951.99;;;;-57
2021/05/20 10:31:05;;;;;;;3.61;1.99;;;;;;;20.36;52.47;100947.79;;;;-54
2021/05/20 10:34:05;;;;;;;2.37;1.89;;;;;;;20.38;52.45;100952.91;;;;-56
2021/05/20 10:37:06;;;;;;;3.51;2.07;;;;;;;20.39;52.41;100945.69;;;;-56
2021/05/20 10:40:05;;;;;;;3.15;1.91;;;;;;;20.40;52.73;100940.34;;;;-50
2021/05/20 10:43:05;;;;;;;8.63;2.11;;;;;;;20.41;52.86;100939.77;;;;-52
2021/05/20 10:46:05;;;;;;;10.74;2.30;;;;;;;20.41;51.96;100932.20;;;;-52
2021/05/20 10:49:17;;;;;;;5.53;1.89;;;;;;;20.43;52.23;100929.13;;;;-63
2021/05/20 10:52:05;;;;;;;4.40;1.70;;;;;;;20.45;52.02;100927.84;;;;-54
2021/05/20 10:55:05;;;;;;;4.20;1.78;;;;;;;20.47;52.09;100918.91;;;;-54
2021/05/20 10:58:05;;;;;;;2.99;1.83;;;;;;;20.49;51.87;100914.20;;;;-54
2021/05/20 11:01:05;;;;;;;3.61;1.95;;;;;;;20.49;51.57;100912.00;;;;-55
2021/05/20 11:04:05;;;;;;;2.98;1.85;;;;;;;20.51;51.73;100910.97;;;;-55
2021/05/20 11:07:05;;;;;;;2.81;1.71;;;;;;;20.52;51.67;100913.33;;;;-54
2021/05/20 11:10:05;;;;;;;2.73;1.73;;;;;;;20.54;51.86;100910.49;;;;-50
2021/05/20 11:13:05;;;;;;;4.07;1.79;;;;;;;20.55;51.83;100908.89;;;;-60
2021/05/20 11:16:05;;;;;;;4.67;1.81;;;;;;;20.57;51.78;100911.92;;;;-52
2021/05/20 11:19:05;;;;;;;3.03;1.90;;;;;;;20.56;51.63;100906.28;;;;-52
2021/05/20 11:22:07;;;;;;;4.04;1.66;;;;;;;20.56;51.60;100905.87;;;;-52
2021/05/20 11:25:05;;;;;;;2.36;1.60;;;;;;;20.56;51.52;100902.20;;;;-53
2021/05/20 11:28:07;;;;;;;6.00;1.70;;;;;;;20.56;51.52;100895.69;;;;-52
2021/05/20 11:31:05;;;;;;;2.94;1.62;;;;;;;20.57;51.52;100896.38;;;;-53
2021/05/20 11:34:21;;;;;;;1.87;1.59;;;;;;;20.58;51.38;100899.24;;;;-52
2021/05/20 11:37:05;;;;;;;2.99;1.49;;;;;;;20.58;51.44;100889.39;;;;-53
2021/05/20 11:40:05;;;;;;;3.03;1.54;;;;;;;20.59;51.38;100890.72;;;;-59
2021/05/20 11:43:05;;;;;;;3.18;1.74;;;;;;;20.59;51.31;100888.28;;;;-59
2021/05/20 11:46:05;;;;;;;2.80;1.51;;;;;;;20.59;51.34;100888.84;;;;-58
2021/05/20 11:49:05;;;;;;;1.69;1.49;;;;;;;20.61;51.29;100884.30;;;;-52
2021/05/20 11:52:07;;;;;;;3.46;1.56;;;;;;;20.62;51.30;100888.30;;;;-56
2021/05/20 11:55:05;;;;;;;1.83;1.50;;;;;;;20.62;51.25;100886.66;;;;-56
2021/05/20 11:58:05;;;;;;;3.79;1.53;;;;;;;20.63;51.27;100887.74;;;;-57
2021/05/20 12:01:05;;;;;;;1.85;1.40;;;;;;;20.64;51.25;100882.93;;;;-56
2021/05/20 12:04:05;;;;;;;1.64;1.41;;;;;;;20.64;51.19;100880.16;;;;-57
2021/05/20 12:07:05;;;;;;;1.49;1.35;;;;;;;20.65;51.18;100875.62;;;;-56
2021/05/20 12:10:05;;;;;;;1.85;1.41;;;;;;;20.65;51.21;100868.38;;;;-59
2021/05/20 12:13:07;;;;;;;2.19;1.40;;;;;;;20.66;51.20;100875.95;;;;-59
2021/05/20 12:16:05;;;;;;;1.80;1.49;;;;;;;20.66;51.13;100881.64;;;;-58
2021/05/20 12:19:05;;;;;;;2.50;1.41;;;;;;;20.68;51.16;100883.63;;;;-57
2021/05/20 12:22:05;;;;;;;1.77;1.30;;;;;;;20.68;51.13;100885.81;;;;-56
2021/05/20 12:25:05;;;;;;;2.90;1.51;;;;;;;20.70;51.25;100879.07;;;;-57
2021/05/20 12:28:05;;;;;;;4.36;1.41;;;;;;;20.72;51.88;100876.48;;;;-57
2021/05/20 12:31:05;;;;;;;2.84;1.52;;;;;;;20.74;52.12;100871.61;;;;-51
2021/05/20 12:34:05;;;;;;;3.14;1.40;;;;;;;20.75;52.07;100868.95;;;;-54
2021/05/20 12:37:05;;;;;;;3.18;1.49;;;;;;;20.77;52.12;100862.12;;;;-57
2021/05/20 12:40:05;;;;;;;3.46;1.43;;;;;;;20.78;52.25;100853.08;;;;-54
2021/05/20 12:43:05;;;;;;;3.84;1.50;;;;;;;20.80;52.05;100849.59;;;;-57
2021/05/20 12:46:06;;;;;;;6.90;1.43;;;;;;;20.82;51.93;100850.41;;;;-51
2021/05/20 12:49:05;;;;;;;2.60;1.37;;;;;;;20.84;52.24;100846.28;;;;-53
2021/05/20 12:52:05;;;;;;;2.74;1.41;;;;;;;20.84;52.06;100844.33;;;;-51
2021/05/20 12:55:05;;;;;;;1.63;1.37;;;;;;;20.86;52.41;100847.11;;;;-47
2021/05/20 12:58:05;;;;;;;1.65;1.40;;;;;;;20.87;52.51;100841.64;;;;-58
2021/05/20 13:01:05;;;;;;;1.50;1.31;;;;;;;20.89;52.59;100838.31;;;;-57
2021/05/20 13:04:05;;;;;;;1.99;1.31;;;;;;;20.91;52.61;100841.67;;;;-58
2021/05/20 13:07:05;;;;;;;1.40;1.30;;;;;;;20.91;52.62;100843.54;;;;-57
2021/05/20 13:10:05;;;;;;;1.67;1.40;;;;;;;20.93;52.51;100839.08;;;;-58
2021/05/20 13:13:05;;;;;;;2.40;1.36;;;;;;;20.95;52.28;100830.05;;;;-54
2021/05/20 13:16:05;;;;;;;1.77;1.32;;;;;;;20.95;51.82;100823.12;;;;-54
2021/05/20 13:19:29;;;;;;;2.05;1.21;;;;;;;20.96;51.76;100816.92;;;;-54
2021/05/20 13:22:22;;;;;;;4.75;1.39;;;;;;;20.96;51.61;100812.84;;;;-59
2021/05/20 13:25:05;;;;;;;1.97;1.36;;;;;;;20.94;51.84;100810.66;;;;-55
2021/05/20 13:28:05;;;;;;;1.85;1.50;;;;;;;20.95;51.93;100809.19;;;;-55
2021/05/20 13:31:06;;;;;;;3.92;1.44;;;;;;;20.97;52.27;100810.17;;;;-53
2021/05/20 13:34:06;;;;;;;1.31;1.21;;;;;;;20.98;52.19;100807.83;;;;-55
2021/05/20 13:37:05;;;;;;;1.44;1.23;;;;;;;21.00;51.95;100804.75;;;;-56
2021/05/20 13:40:06;;;;;;;1.73;1.30;;;;;;;21.00;52.00;100797.83;;;;-54
2021/05/20 13:43:05;;;;;;;1.61;1.30;;;;;;;21.01;52.08;100802.95;;;;-50
2021/05/20 13:46:05;;;;;;;3.79;1.40;;;;;;;21.02;52.23;100801.98;;;;-53
2021/05/20 13:49:05;;;;;;;1.94;1.21;;;;;;;21.05;52.53;100797.27;;;;-54
2021/05/20 13:52:05;;;;;;;1.53;1.33;;;;;;;21.04;52.24;100796.78;;;;-53
2021/05/20 13:55:05;;;;;;;1.37;1.25;;;;;;;21.06;52.44;100789.19;;;;-54
2021/05/20 13:58:06;;;;;;;1.82;1.24;;;;;;;21.07;52.12;100780.16;;;;-50
2021/05/20 14:01:05;;;;;;;1.44;1.20;;;;;;;21.08;52.11;100775.43;;;;-50
2021/05/20 14:04:10;;;;;;;1.13;1.07;;;;;;;21.08;52.28;100782.03;;;;-54
2021/05/20 14:07:05;;;;;;;1.83;1.31;;;;;;;21.09;52.18;100773.98;;;;-52
2021/05/20 14:10:05;;;;;;;1.97;1.30;;;;;;;21.12;52.38;100774.22;;;;-54
2021/05/20 14:13:06;;;;;;;1.48;1.36;;;;;;;21.11;51.58;100774.73;;;;-52
2021/05/20 14:16:05;;;;;;;1.55;1.31;;;;;;;21.11;52.01;100775.47;;;;-52
2021/05/20 14:19:05;;;;;;;1.72;1.30;;;;;;;21.11;51.87;100771.22;;;;-52
2021/05/20 14:22:05;;;;;;;2.63;1.34;;;;;;;21.12;52.14;100771.61;;;;-52
2021/05/20 14:25:05;;;;;;;1.49;1.20;;;;;;;21.12;52.08;100764.77;;;;-53
2021/05/20 14:28:05;;;;;;;2.10;1.31;;;;;;;21.13;51.96;100767.72;;;;-49
2021/05/20 14:31:05;;;;;;;2.49;1.40;;;;;;;21.14;51.91;100764.22;;;;-50
2021/05/20 14:34:05;;;;;;;1.62;1.20;;;;;;;21.15;52.20;100758.12;;;;-48
2021/05/20 14:37:05;;;;;;;1.35;1.25;;;;;;;21.17;52.14;100762.13;;;;-52
2021/05/20 14:40:05;;;;;;;3.28;1.33;;;;;;;21.17;51.96;100756.17;;;;-47
2021/05/20 14:43:05;;;;;;;2.11;1.31;;;;;;;21.18;52.20;100751.52;;;;-57
2021/05/20 14:46:05;;;;;;;1.47;1.33;;;;;;;21.20;52.07;100747.04;;;;-56
2021/05/20 14:49:05;;;;;;;1.69;1.29;;;;;;;21.20;52.22;100731.80;;;;-54
2021/05/20 14:52:07;;;;;;;2.12;1.20;;;;;;;21.20;52.16;100730.41;;;;-52
2021/05/20 14:55:08;;;;;;;1.40;1.23;;;;;;;21.23;52.25;100728.08;;;;-49
2021/05/20 15:06:16;;;;;;;1.52;1.29;;;;;;;21.26;52.13;100722.53;;;;-60
2021/05/20 15:09:09;;;;;;;1.48;1.29;;;;;;;21.28;52.25;100719.69;;;;-53
2021/05/20 15:12:08;;;;;;;2.73;1.23;;;;;;;21.26;51.92;100710.63;;;;-55
2021/05/20 15:15:07;;;;;;;2.74;1.41;;;;;;;21.27;52.15;100702.91;;;;-54
2021/05/20 15:18:08;;;;;;;3.69;1.23;;;;;;;21.28;52.19;100702.73;;;;-50
2021/05/20 15:21:05;;;;;;;1.93;1.30;;;;;;;21.28;51.98;100702.98;;;;-51
2021/05/20 15:24:05;;;;;;;3.28;1.27;;;;;;;21.28;52.08;100701.83;;;;-53
2021/05/20 15:27:05;;;;;;;2.55;1.08;;;;;;;21.29;52.05;100698.84;;;;-55
2021/05/20 15:30:05;;;;;;;1.69;1.30;;;;;;;21.29;52.04;100695.90;;;;-62
2021/05/20 15:33:05;;;;;;;3.43;1.29;;;;;;;21.30;52.10;100690.84;;;;-50
2021/05/20 15:36:05;;;;;;;2.58;1.23;;;;;;;21.30;51.89;100683.42;;;;-52
2021/05/20 15:39:05;;;;;;;3.86;1.21;;;;;;;21.30;51.51;100677.80;;;;-53
2021/05/20 15:42:05;;;;;;;1.29;1.19;;;;;;;21.29;51.52;100673.31;;;;-53
2021/05/20 15:45:05;;;;;;;3.91;1.19;;;;;;;21.26;51.44;100672.41;;;;-54
2021/05/20 15:48:18;;;;;;;4.48;1.30;;;;;;;21.26;51.46;100667.51;;;;-54
2021/05/20 15:51:05;;;;;;;7.71;1.58;;;;;;;21.29;51.41;100657.48;;;;-57
2021/05/20 15:54:05;;;;;;;4.84;1.52;;;;;;;21.29;51.72;100653.91;;;;-52
2021/05/20 15:57:05;;;;;;;5.07;1.49;;;;;;;21.30;51.87;100646.41;;;;-57
2021/05/20 16:00:05;;;;;;;4.23;1.36;;;;;;;21.32;52.00;100649.09;;;;-59
2021/05/20 16:03:05;;;;;;;3.62;1.20;;;;;;;21.34;51.89;100642.25;;;;-52
2021/05/20 16:06:05;;;;;;;3.09;1.39;;;;;;;21.33;51.59;100637.70;;;;-64
2021/05/20 16:09:07;;;;;;;4.07;1.40;;;;;;;21.34;51.77;100640.63;;;;-62
2021/05/20 16:12:13;;;;;;;3.57;1.47;;;;;;;21.35;51.79;100637.59;;;;-58
2021/05/20 16:15:07;;;;;;;1.99;1.20;;;;;;;21.34;51.82;100637.13;;;;-59
2021/05/20 16:18:05;;;;;;;3.43;1.31;;;;;;;21.35;51.92;100644.13;;;;-50
2021/05/20 16:21:05;;;;;;;2.62;1.49;;;;;;;21.37;52.04;100647.72;;;;-57
2021/05/20 16:24:15;;;;;;;2.03;1.33;;;;;;;21.38;51.99;100643.50;;;;-54
2021/05/20 16:27:30;;;;;;;2.27;1.27;;;;;;;21.37;51.32;100646.56;;;;-55
2021/05/20 16:36:07;;;;;;;2.52;1.17;;;;;;;21.39;51.91;100651.46;;;;-60
2021/05/20 16:39:05;;;;;;;7.56;1.31;;;;;;;21.38;51.95;100648.45;;;;-47
2021/05/20 16:42:05;;;;;;;3.86;1.24;;;;;;;21.39;51.83;100645.92;;;;-53
2021/05/20 16:45:05;;;;;;;3.87;1.35;;;;;;;21.40;51.87;100647.81;;;;-59
2021/05/20 16:48:05;;;;;;;3.07;1.40;;;;;;;21.41;51.89;100649.03;;;;-58
2021/05/20 16:51:05;;;;;;;2.35;1.25;;;;;;;21.42;51.79;100651.67;;;;-57
2021/05/20 16:54:08;;;;;;;1.75;1.13;;;;;;;21.42;51.58;100657.71;;;;-56
2021/05/20 16:57:14;;;;;;;1.40;1.20;;;;;;;21.43;51.77;100659.98;;;;-58
2021/05/20 17:00:05;;;;;;;1.81;1.18;;;;;;;21.44;51.88;100663.42;;;;-50